createdAt,value
2023-04-16T00:00:48.692Z,10.52
2023-04-16T00:03:32.174Z,11.43
2023-04-16T00:06:00.791Z,11.87
2023-04-16T00:08:28.832Z,11.80
2023-04-16T00:10:56.756Z,10.51
2023-04-16T00:13:26.178Z,9.26
2023-04-16T00:15:54.104Z,8.76
2023-04-16T00:18:22.156Z,9.88
2023-04-16T00:20:50.898Z,10.91
2023-04-16T00:23:19.138Z,11.42
2023-04-16T00:25:47.472Z,11.64
2023-04-16T00:28:15.398Z,11.78
2023-04-16T00:30:43.625Z,11.67
2023-04-16T00:33:12.025Z,10.30
2023-04-16T00:35:40.011Z,8.97
2023-04-16T00:38:08.502Z,8.37
2023-04-16T00:40:36.557Z,9.51
2023-04-16T00:43:04.642Z,10.46
2023-04-16T00:45:32.886Z,10.94
2023-04-16T00:48:01.261Z,11.18
2023-04-16T00:50:29.862Z,10.99
2023-04-16T00:52:58.329Z,9.76
2023-04-16T00:55:27.303Z,8.82
2023-04-16T00:57:55.348Z,9.55
2023-04-16T01:00:23.763Z,10.38
2023-04-16T01:02:52.398Z,10.95
2023-04-16T01:05:21.118Z,11.36
2023-04-16T01:07:49.044Z,11.59
2023-04-16T01:10:17.357Z,11.80
2023-04-16T01:12:45.732Z,12.03
2023-04-16T01:15:13.639Z,12.23
2023-04-16T01:17:46.200Z,12.39
2023-04-16T01:20:15.018Z,12.59
2023-04-16T01:22:42.986Z,12.77
2023-04-16T01:25:15.939Z,12.91
2023-04-16T01:27:43.996Z,13.00
2023-04-16T01:30:12.210Z,13.13
2023-04-16T01:32:49.533Z,12.89
2023-04-16T01:35:18.455Z,11.60
2023-04-16T01:37:46.705Z,10.44
2023-04-16T01:40:14.613Z,9.90
2023-04-16T01:42:42.582Z,10.82
2023-04-16T01:45:11.226Z,11.87
2023-04-16T01:47:39.237Z,12.28
2023-04-16T01:50:07.879Z,12.53
2023-04-16T01:52:35.971Z,12.70
2023-04-16T01:55:04.158Z,12.70
2023-04-16T01:57:32.080Z,12.51
2023-04-16T01:59:59.919Z,12.37
2023-04-16T02:02:29.520Z,12.38
2023-04-16T02:04:57.961Z,12.54
2023-04-16T02:07:26.100Z,12.51
2023-04-16T02:09:54.263Z,12.52
2023-04-16T02:12:22.160Z,12.68
2023-04-16T02:14:50.089Z,12.71
2023-04-16T02:17:19.351Z,12.70
2023-04-16T02:19:50.493Z,12.71
2023-04-16T02:22:18.828Z,12.86
2023-04-16T02:24:47.289Z,12.96
2023-04-16T02:27:16.238Z,12.89
2023-04-16T02:29:45.037Z,12.96
2023-04-16T02:32:15.851Z,12.98
2023-04-16T02:34:45.661Z,12.96
2023-04-16T02:37:15.449Z,13.06
2023-04-16T02:39:44.142Z,13.16
2023-04-16T02:42:38.699Z,13.04
2023-04-16T02:45:15.597Z,11.82
2023-04-16T02:47:43.555Z,10.79
2023-04-16T02:50:11.832Z,11.32
2023-04-16T02:52:39.890Z,11.86
2023-04-16T02:55:08.919Z,12.16
2023-04-16T02:57:36.890Z,12.22
2023-04-16T03:00:05.286Z,12.35
2023-04-16T03:02:33.583Z,12.57
2023-04-16T03:05:02.007Z,12.78
2023-04-16T03:07:30.325Z,12.96
2023-04-16T03:09:58.606Z,12.91
2023-04-16T03:12:26.497Z,11.54
2023-04-16T03:14:54.451Z,10.50
2023-04-16T03:17:22.372Z,11.30
2023-04-16T03:19:51.037Z,12.26
2023-04-16T03:22:20.853Z,12.75
2023-04-16T03:24:49.179Z,13.11
2023-04-16T03:27:17.066Z,13.38
2023-04-16T03:29:45.873Z,13.25
2023-04-16T03:32:14.671Z,11.89
2023-04-16T03:34:45.607Z,10.84
2023-04-16T03:37:13.494Z,11.48
2023-04-16T03:39:41.635Z,12.24
2023-04-16T03:42:11.901Z,12.65
2023-04-16T03:44:39.900Z,13.00
2023-04-16T03:47:07.833Z,13.30
2023-04-16T03:49:36.874Z,13.09
2023-04-16T03:52:05.112Z,12.15
2023-04-16T03:54:33.143Z,11.05
2023-04-16T03:57:10.434Z,11.84
2023-04-16T03:59:38.788Z,12.69
2023-04-16T04:02:07.415Z,12.89
2023-04-16T04:04:35.527Z,12.97
2023-04-16T04:07:04.342Z,13.28
2023-04-16T04:09:34.105Z,13.50
2023-04-16T04:12:04.555Z,12.89
2023-04-16T04:14:32.971Z,11.33
2023-04-16T04:17:00.982Z,10.52
2023-04-16T04:19:28.880Z,11.83
2023-04-16T04:21:56.778Z,12.96
2023-04-16T04:24:24.786Z,13.08
2023-04-16T04:26:52.784Z,11.40
2023-04-16T04:29:20.799Z,10.17
2023-04-16T04:31:48.759Z,11.04
2023-04-16T04:34:17.162Z,11.70
2023-04-16T04:36:45.721Z,12.16
2023-04-16T04:39:15.171Z,12.30
2023-04-16T04:41:44.065Z,12.39
2023-04-16T04:44:12.020Z,12.68
2023-04-16T04:46:40.948Z,13.23
2023-04-16T04:49:09.446Z,12.94
2023-04-16T04:51:38.101Z,13.10
2023-04-16T04:54:06.591Z,13.21
2023-04-16T04:56:34.658Z,13.43
2023-04-16T04:59:02.650Z,13.15
2023-04-16T05:01:30.673Z,11.46
2023-04-16T05:03:58.799Z,10.59
2023-04-16T05:06:29.561Z,11.47
2023-04-16T05:08:57.625Z,12.31
2023-04-16T05:11:25.593Z,12.82
2023-04-16T05:13:53.642Z,13.00
2023-04-16T05:16:21.576Z,13.54
2023-04-16T05:18:50.531Z,13.50
2023-04-16T05:21:18.490Z,11.82
2023-04-16T05:23:46.364Z,10.88
2023-04-16T05:26:14.327Z,11.93
2023-04-16T05:28:42.209Z,12.76
2023-04-16T05:31:10.345Z,13.01
2023-04-16T05:33:38.403Z,13.06
2023-04-16T05:36:06.573Z,13.13
2023-04-16T05:38:34.474Z,13.31
2023-04-16T05:41:02.403Z,13.29
2023-04-16T05:43:30.333Z,13.36
2023-04-16T05:45:58.286Z,13.53
2023-04-16T05:48:26.173Z,13.67
2023-04-16T05:50:54.104Z,13.85
2023-04-16T05:53:22.094Z,14.09
2023-04-16T05:55:50.057Z,14.12
2023-04-16T05:58:17.962Z,14.21
2023-04-16T06:00:45.924Z,14.36
2023-04-16T06:03:13.989Z,14.55
2023-04-16T06:05:42.051Z,14.65
2023-04-16T06:08:10.163Z,13.50
2023-04-16T06:10:38.108Z,11.90
2023-04-16T06:13:06.138Z,11.34
2023-04-16T06:15:34.095Z,12.44
2023-04-16T06:18:02.071Z,13.29
2023-04-16T06:20:30.763Z,13.67
2023-04-16T06:22:58.741Z,13.96
2023-04-16T06:25:26.679Z,14.26
2023-04-16T06:27:54.603Z,14.68
2023-04-16T06:30:22.605Z,14.69
2023-04-16T06:32:50.724Z,14.48
2023-04-16T06:35:20.385Z,14.34
2023-04-16T06:37:48.456Z,14.40
2023-04-16T06:40:16.704Z,14.64
2023-04-16T06:42:45.682Z,14.37
2023-04-16T06:45:14.062Z,14.14
2023-04-16T06:47:42.109Z,14.52
2023-04-16T06:50:10.662Z,15.16
2023-04-16T06:52:38.736Z,14.33
2023-04-16T06:55:09.909Z,13.30
2023-04-16T06:57:38.061Z,14.01
2023-04-16T07:00:06.902Z,14.49
2023-04-16T07:02:35.317Z,15.00
2023-04-16T07:05:03.821Z,15.32
2023-04-16T07:07:32.269Z,15.37
2023-04-16T07:10:00.442Z,15.63
2023-04-16T07:12:28.550Z,15.02
2023-04-16T07:14:56.773Z,13.69
2023-04-16T07:17:25.432Z,13.11
2023-04-16T07:19:54.228Z,14.08
2023-04-16T07:22:22.163Z,15.23
2023-04-16T07:24:50.353Z,15.39
2023-04-16T07:27:18.317Z,14.19
2023-04-16T07:29:46.727Z,13.51
2023-04-16T07:32:15.617Z,14.56
2023-04-16T07:34:43.920Z,15.59
2023-04-16T07:37:11.863Z,15.95
2023-04-16T07:39:40.258Z,15.93
2023-04-16T07:42:08.282Z,15.01
2023-04-16T07:44:36.448Z,14.11
2023-04-16T07:47:05.603Z,13.80
2023-04-16T07:49:34.258Z,14.82
2023-04-16T07:52:02.311Z,15.79
2023-04-16T07:54:30.276Z,15.60
2023-04-16T07:56:58.144Z,14.64
2023-04-16T07:59:26.396Z,13.79
2023-04-16T08:01:54.792Z,13.60
2023-04-16T08:04:25.702Z,14.78
2023-04-16T08:06:54.543Z,15.70
2023-04-16T08:09:24.177Z,14.90
2023-04-16T08:11:52.326Z,13.90
2023-04-16T08:14:20.570Z,13.68
2023-04-16T08:16:49.505Z,15.06
2023-04-16T08:19:17.572Z,15.84
2023-04-16T08:21:47.114Z,15.48
2023-04-16T08:24:15.155Z,14.74
2023-04-16T08:26:43.116Z,14.03
2023-04-16T08:29:11.347Z,13.51
2023-04-16T08:31:39.623Z,13.40
2023-04-16T08:34:07.720Z,14.63
2023-04-16T08:36:35.683Z,15.56
2023-04-16T08:39:03.962Z,15.20
2023-04-16T08:41:36.380Z,14.39
2023-04-16T08:44:09.449Z,13.76
2023-04-16T08:46:38.393Z,14.30
2023-04-16T08:49:08.321Z,15.86
2023-04-16T08:51:37.152Z,15.97
2023-04-16T08:54:09.233Z,14.78
2023-04-16T08:56:40.777Z,13.86
2023-04-16T08:59:10.126Z,13.41
2023-04-16T09:01:41.773Z,13.17
2023-04-16T09:04:10.134Z,13.43
2023-04-16T09:06:39.018Z,15.00
2023-04-16T09:09:09.139Z,16.17
2023-04-16T09:11:39.580Z,15.77
2023-04-16T09:14:11.307Z,15.00
2023-04-16T09:16:39.866Z,14.53
2023-04-16T09:19:08.132Z,14.24
2023-04-16T09:21:36.927Z,14.13
2023-04-16T09:24:05.526Z,14.22
2023-04-16T09:26:34.171Z,14.32
2023-04-16T09:29:02.902Z,14.16
2023-04-16T09:31:30.903Z,14.02
2023-04-16T09:34:09.278Z,14.02
2023-04-16T09:36:37.715Z,14.01
2023-04-16T09:39:06.548Z,14.09
2023-04-16T09:41:39.887Z,14.14
2023-04-16T09:44:08.307Z,14.20
2023-04-16T09:46:43.328Z,14.34
2023-04-16T09:49:17.685Z,14.53
2023-04-16T09:51:51.060Z,14.69
2023-04-16T09:54:24.197Z,14.88
2023-04-16T09:56:56.850Z,15.05
2023-04-16T09:59:25.709Z,15.04
2023-04-16T10:02:15.771Z,15.06
2023-04-16T10:04:48.560Z,15.25
2023-04-16T10:07:17.773Z,15.62
2023-04-16T10:09:50.189Z,16.22
2023-04-16T10:12:18.396Z,16.83
2023-04-16T10:14:48.302Z,17.14
2023-04-16T10:17:17.850Z,17.29
2023-04-16T10:19:46.805Z,17.41
2023-04-16T10:22:15.460Z,17.45
2023-04-16T10:24:44.225Z,17.37
2023-04-16T10:27:12.445Z,17.36
2023-04-16T10:29:41.592Z,17.35
2023-04-16T10:32:10.480Z,17.26
2023-04-16T10:34:39.466Z,17.39
2023-04-16T10:37:07.391Z,17.74
2023-04-16T10:39:37.678Z,18.08
2023-04-16T10:42:13.174Z,18.05
2023-04-16T10:44:44.337Z,17.83
2023-04-16T10:47:14.462Z,17.56
2023-04-16T10:49:44.085Z,17.16
2023-04-16T10:52:17.178Z,16.71
2023-04-16T10:54:48.022Z,16.34
2023-04-16T10:57:18.154Z,16.05
2023-04-16T10:59:48.890Z,15.78
2023-04-16T11:02:19.619Z,15.59
2023-04-16T11:04:49.313Z,15.48
2023-04-16T11:07:20.639Z,15.42
2023-04-16T11:09:54.688Z,15.37
2023-04-16T11:12:27.789Z,15.32
2023-04-16T11:15:03.388Z,15.33
2023-04-16T11:17:37.328Z,15.47
2023-04-16T11:20:19.062Z,15.69
2023-04-16T11:22:54.827Z,15.83
2023-04-16T11:25:30.355Z,16.03
2023-04-16T11:28:01.639Z,16.21
2023-04-16T11:30:37.590Z,16.38
2023-04-16T11:33:08.515Z,16.76
2023-04-16T11:35:37.311Z,17.32
2023-04-16T11:38:09.102Z,17.99
2023-04-16T11:40:37.130Z,18.47
2023-04-16T11:43:15.040Z,18.76
2023-04-16T11:46:10.319Z,18.98
2023-04-16T11:48:55.673Z,19.21
2023-04-16T11:51:24.078Z,19.32
2023-04-16T11:53:54.361Z,19.52
2023-04-16T11:56:29.994Z,19.61
2023-04-16T11:59:09.037Z,19.52
2023-04-16T12:01:39.283Z,19.22
2023-04-16T12:04:08.556Z,18.80
2023-04-16T12:06:37.119Z,18.33
2023-04-16T12:09:26.108Z,17.98
2023-04-16T12:11:54.306Z,17.59
2023-04-16T12:14:23.797Z,17.31
2023-04-16T12:16:51.874Z,17.18
2023-04-16T12:19:21.001Z,17.18
2023-04-16T12:21:50.113Z,17.18
2023-04-16T12:24:24.278Z,17.30
2023-04-16T12:26:57.503Z,17.58
2023-04-16T12:29:27.630Z,17.82
2023-04-16T12:31:55.968Z,17.99
2023-04-16T12:34:29.021Z,18.01
2023-04-16T12:37:13.019Z,18.06
2023-04-16T12:39:41.497Z,18.45
2023-04-16T12:42:11.553Z,18.94
2023-04-16T12:44:39.782Z,19.29
2023-04-16T12:47:08.407Z,19.64
2023-04-16T12:49:37.411Z,20.14
2023-04-16T12:52:06.465Z,20.65
2023-04-16T12:54:36.738Z,21.08
2023-04-16T12:57:05.192Z,21.27
2023-04-16T12:59:33.321Z,21.26
2023-04-16T13:02:02.893Z,21.29
2023-04-16T13:04:31.230Z,21.18
2023-04-16T13:06:59.905Z,20.86
2023-04-16T13:09:28.696Z,20.62
2023-04-16T13:11:56.707Z,20.40
2023-04-16T13:14:24.843Z,20.18
2023-04-16T13:16:52.811Z,19.98
2023-04-16T13:19:21.369Z,20.01
2023-04-16T13:21:49.496Z,19.95
2023-04-16T13:24:17.518Z,20.09
2023-04-16T13:26:45.526Z,20.44
2023-04-16T13:29:13.704Z,20.83
2023-04-16T13:31:41.804Z,21.07
2023-04-16T13:34:10.905Z,21.15
2023-04-16T13:36:39.069Z,21.15
2023-04-16T13:39:11.709Z,21.22
2023-04-16T13:41:40.477Z,21.27
2023-04-16T13:44:08.695Z,21.36
2023-04-16T13:46:36.805Z,21.40
2023-04-16T13:49:05.019Z,21.28
2023-04-16T13:51:33.064Z,21.19
2023-04-16T13:54:01.258Z,21.00
2023-04-16T13:56:29.244Z,20.82
2023-04-16T13:59:13.218Z,20.89
2023-04-16T14:01:49.419Z,20.79
2023-04-16T14:04:26.065Z,20.63
2023-04-16T14:06:57.143Z,20.43
2023-04-16T14:09:30.611Z,20.21
2023-04-16T14:11:59.042Z,20.00
2023-04-16T14:14:27.407Z,19.72
2023-04-16T14:16:55.951Z,19.39
2023-04-16T14:19:26.075Z,19.14
2023-04-16T14:21:57.813Z,18.95
2023-04-16T14:24:26.176Z,18.92
2023-04-16T14:26:54.441Z,18.93
2023-04-16T14:29:22.373Z,18.89
2023-04-16T14:31:50.617Z,18.71
2023-04-16T14:34:18.673Z,18.40
2023-04-16T14:36:47.075Z,18.24
2023-04-16T14:39:16.189Z,18.36
2023-04-16T14:41:44.454Z,18.65
2023-04-16T14:44:12.501Z,19.01
2023-04-16T14:46:41.213Z,19.30
2023-04-16T14:49:12.215Z,19.29
2023-04-16T14:51:41.961Z,19.20
2023-04-16T14:54:10.126Z,19.23
2023-04-16T14:56:41.363Z,19.25
2023-04-16T14:59:24.329Z,19.25
2023-04-16T15:01:59.579Z,19.18
2023-04-16T15:04:28.341Z,18.94
2023-04-16T15:06:59.571Z,18.77
2023-04-16T15:09:28.017Z,18.65
2023-04-16T15:11:57.146Z,18.57
2023-04-16T15:14:25.454Z,18.49
2023-04-16T15:16:53.947Z,18.51
2023-04-16T15:19:22.559Z,18.56
2023-04-16T15:21:50.580Z,18.49
2023-04-16T15:24:19.099Z,18.35
2023-04-16T15:26:51.478Z,18.18
2023-04-16T15:29:19.648Z,18.02
2023-04-16T15:31:47.963Z,17.82
2023-04-16T15:34:16.079Z,17.63
2023-04-16T15:36:44.269Z,17.47
2023-04-16T15:39:12.554Z,17.28
2023-04-16T15:41:53.639Z,17.07
2023-04-16T15:44:27.290Z,16.86
2023-04-16T15:46:55.365Z,16.67
2023-04-16T15:49:25.010Z,16.47
2023-04-16T15:51:53.918Z,16.34
2023-04-16T15:54:22.050Z,16.26
2023-04-16T15:56:50.568Z,16.24
2023-04-16T15:59:18.572Z,16.22
2023-04-16T16:01:46.711Z,16.19
2023-04-16T16:04:14.819Z,16.14
2023-04-16T16:06:43.186Z,16.07
2023-04-16T16:09:11.800Z,16.00
2023-04-16T16:11:40.299Z,15.93
2023-04-16T16:14:08.272Z,15.87
2023-04-16T16:16:36.957Z,15.86
2023-04-16T16:19:05.565Z,15.85
2023-04-16T16:21:33.936Z,15.82
2023-04-16T16:24:02.280Z,15.78
2023-04-16T16:26:31.714Z,15.75
2023-04-16T16:28:59.811Z,15.74
2023-04-16T16:31:30.605Z,15.77
2023-04-16T16:33:58.565Z,15.89
2023-04-16T16:36:30.206Z,16.03
2023-04-16T16:38:58.290Z,16.11
2023-04-16T16:41:26.567Z,16.11
2023-04-16T16:43:56.450Z,16.13
2023-04-16T16:46:24.772Z,16.12
2023-04-16T16:48:52.807Z,16.13
2023-04-16T16:51:21.649Z,16.19
2023-04-16T16:53:49.597Z,16.31
2023-04-16T16:56:17.613Z,16.40
2023-04-16T16:58:45.546Z,16.41
2023-04-16T17:01:13.651Z,16.38
2023-04-16T17:03:41.821Z,16.34
2023-04-16T17:06:09.933Z,16.28
2023-04-16T17:08:38.342Z,16.19
2023-04-16T17:11:06.407Z,16.11
2023-04-16T17:13:34.599Z,16.08
2023-04-16T17:16:02.564Z,16.03
2023-04-16T17:18:30.921Z,15.87
2023-04-16T17:20:58.800Z,15.72
2023-04-16T17:23:27.073Z,15.57
2023-04-16T17:25:55.012Z,15.36
2023-04-16T17:28:23.192Z,15.14
2023-04-16T17:30:52.613Z,14.92
2023-04-16T17:33:20.690Z,14.69
2023-04-16T17:35:49.217Z,14.46
2023-04-16T17:38:17.403Z,14.25
2023-04-16T17:40:45.500Z,14.05
2023-04-16T17:43:13.575Z,13.85
2023-04-16T17:45:41.661Z,13.66
2023-04-16T17:48:09.686Z,13.49
2023-04-16T17:50:39.506Z,13.34
2023-04-16T17:53:07.999Z,13.20
2023-04-16T17:55:36.096Z,13.08
2023-04-16T17:58:04.935Z,12.96
2023-04-16T18:00:33.119Z,12.83
2023-04-16T18:03:01.367Z,12.73
2023-04-16T18:05:31.006Z,12.62
2023-04-16T18:07:59.260Z,12.49
2023-04-16T18:10:29.710Z,12.36
2023-04-16T18:12:57.886Z,12.23
2023-04-16T18:15:25.907Z,12.11
2023-04-16T18:17:54.525Z,11.99
2023-04-16T18:20:22.659Z,11.87
2023-04-16T18:22:50.695Z,11.76
2023-04-16T18:25:21.546Z,11.88
2023-04-16T18:27:58.950Z,13.44
2023-04-16T18:30:26.991Z,15.00
2023-04-16T18:35:30.067Z,14.80
2023-04-16T18:37:58.012Z,13.85
2023-04-16T18:40:26.234Z,13.21
2023-04-16T18:42:54.161Z,12.75
2023-04-16T18:45:22.214Z,12.36
2023-04-16T18:47:51.056Z,12.02
2023-04-16T18:50:18.951Z,11.74
2023-04-16T18:52:47.130Z,11.84
2023-04-16T18:55:15.561Z,13.30
2023-04-16T18:57:43.695Z,14.53
2023-04-16T19:00:13.070Z,14.61
2023-04-16T19:02:41.409Z,13.71
2023-04-16T19:05:10.057Z,12.90
2023-04-16T19:07:38.738Z,12.34
2023-04-16T19:10:07.576Z,11.94
2023-04-16T19:12:35.870Z,11.64
2023-04-16T19:15:04.898Z,11.68
2023-04-16T19:17:33.050Z,13.03
2023-04-16T19:20:01.001Z,14.29
2023-04-16T19:22:29.388Z,14.91
2023-04-16T19:24:57.818Z,14.06
2023-04-16T19:27:29.212Z,13.06
2023-04-16T19:29:57.267Z,12.38
2023-04-16T19:32:25.544Z,11.90
2023-04-16T19:34:53.768Z,11.92
2023-04-16T19:37:21.965Z,13.63
2023-04-16T19:39:50.601Z,15.32
2023-04-16T19:42:18.942Z,16.15
2023-04-16T19:44:46.926Z,15.55
2023-04-16T19:47:15.043Z,14.83
2023-04-16T19:49:44.287Z,14.40
2023-04-16T19:52:21.209Z,13.93
2023-04-16T19:54:51.783Z,13.34
2023-04-16T19:57:19.782Z,12.80
2023-04-16T19:59:47.844Z,12.35
2023-04-16T20:02:15.763Z,12.29
2023-04-16T20:04:44.908Z,13.66
2023-04-16T20:07:14.843Z,15.00
2023-04-16T20:09:43.328Z,15.42
2023-04-16T20:12:11.763Z,14.41
2023-04-16T20:14:40.548Z,13.36
2023-04-16T20:17:10.331Z,12.60
2023-04-16T20:19:38.633Z,12.03
2023-04-16T20:22:06.753Z,11.55
2023-04-16T20:24:34.837Z,11.14
2023-04-16T20:27:03.264Z,11.14
2023-04-16T20:29:31.332Z,12.60
2023-04-16T20:31:59.599Z,13.93
2023-04-16T20:34:28.592Z,14.42
2023-04-16T20:36:58.128Z,13.48
2023-04-16T20:39:27.388Z,12.45
2023-04-16T20:41:58.250Z,11.73
2023-04-16T20:44:33.343Z,11.21
2023-04-16T20:47:01.417Z,11.18
2023-04-16T20:49:30.341Z,12.65
2023-04-16T20:51:58.370Z,13.97
2023-04-16T20:54:27.254Z,14.53
2023-04-16T20:56:56.199Z,13.66
2023-04-16T20:59:25.047Z,12.66
2023-04-16T21:01:52.935Z,11.93
2023-04-16T21:04:21.444Z,11.39
2023-04-16T21:06:53.605Z,11.28
2023-04-16T21:09:21.972Z,12.61
2023-04-16T21:11:49.998Z,13.18
2023-04-16T21:14:19.202Z,12.38
2023-04-16T21:16:47.148Z,11.53
2023-04-16T21:19:15.090Z,11.66
2023-04-16T21:21:43.049Z,12.76
2023-04-16T21:24:10.963Z,13.35
2023-04-16T21:26:38.851Z,12.47
2023-04-16T21:29:06.736Z,11.67
2023-04-16T21:31:34.844Z,12.09
2023-04-16T21:34:02.829Z,13.20
2023-04-16T21:36:33.233Z,13.09
2023-04-16T21:39:01.667Z,12.03
2023-04-16T21:41:29.720Z,12.08
2023-04-16T21:43:57.637Z,13.22
2023-04-16T21:46:26.432Z,13.47
2023-04-16T21:48:54.396Z,12.59
2023-04-16T21:51:29.324Z,11.71
2023-04-16T21:53:57.675Z,11.60
2023-04-16T21:56:26.223Z,12.85
2023-04-16T21:58:54.230Z,13.97
2023-04-16T22:01:22.228Z,14.13
2023-04-16T22:03:52.216Z,13.02
2023-04-16T22:06:20.688Z,12.00
2023-04-16T22:08:50.269Z,11.73
2023-04-16T22:11:18.403Z,13.02
2023-04-16T22:13:47.862Z,14.10
2023-04-16T22:16:16.386Z,14.31
2023-04-16T22:18:45.447Z,13.19
2023-04-16T22:21:13.773Z,12.14
2023-04-16T22:23:41.875Z,11.89
2023-04-16T22:26:10.196Z,13.02
2023-04-16T22:28:38.124Z,13.96
2023-04-16T22:31:06.020Z,13.97
2023-04-16T22:33:33.908Z,12.87
2023-04-16T22:36:01.825Z,12.26
2023-04-16T22:38:29.733Z,13.06
2023-04-16T22:40:57.630Z,13.86
2023-04-16T22:43:25.501Z,14.28
2023-04-16T22:46:04.770Z,13.28
2023-04-16T22:48:36.412Z,12.07
2023-04-16T22:51:07.230Z,11.79
2023-04-16T22:53:35.371Z,12.93
2023-04-16T22:56:03.270Z,13.75
2023-04-16T22:58:31.184Z,14.18
2023-04-16T23:00:59.634Z,14.25
2023-04-16T23:03:29.354Z,13.09
2023-04-16T23:05:57.810Z,12.03
2023-04-16T23:08:25.719Z,12.35
2023-04-16T23:10:53.608Z,13.44
2023-04-16T23:13:21.547Z,14.28
2023-04-16T23:15:52.729Z,14.11
2023-04-16T23:18:23.704Z,12.70
2023-04-16T23:20:52.782Z,12.01
2023-04-16T23:23:21.113Z,12.97
2023-04-16T23:25:53.483Z,13.60
2023-04-16T23:28:22.147Z,14.23
2023-04-16T23:30:53.317Z,14.20
2023-04-16T23:33:21.860Z,13.03
2023-04-16T23:35:50.054Z,11.92
2023-04-16T23:38:18.037Z,11.57
2023-04-16T23:40:46.121Z,12.77
2023-04-16T23:43:18.007Z,13.80
2023-04-16T23:45:46.012Z,14.49
2023-04-16T23:48:13.958Z,14.55
2023-04-16T23:50:41.840Z,13.39
2023-04-16T23:53:09.762Z,12.19
2023-04-16T23:55:37.879Z,11.73
2023-04-16T23:58:07.154Z,12.99
